sensor_id;sensor_type;location;lat;lon;timestamp;temperature;humidity
56234;DHT22;42141;53.240;6.580;2022-07-24T00:00:16;15.70;99.90
56234;DHT22;42141;53.240;6.580;2022-07-24T00:02:42;15.70;99.90
56234;DHT22;42141;53.240;6.580;2022-07-24T00:05:08;16.00;99.90
56234;DHT22;42141;53.240;6.580;2022-07-24T00:07:34;15.70;99.90
56234;DHT22;42141;53.240;6.580;2022-07-24T00:10:01;15.70;99.90
56234;DHT22;42141;53.240;6.580;2022-07-24T00:12:27;15.70;99.90
56234;DHT22;42141;53.240;6.580;2022-07-24T00:14:54;15.70;99.90
56234;DHT22;42141;53.240;6.580;2022-07-24T00:17:20;16.40;99.90
56234;DHT22;42141;53.240;6.580;2022-07-24T00:19:45;15.70;99.90
56234;DHT22;42141;53.240;6.580;2022-07-24T00:22:11;16.40;99.90
56234;DHT22;42141;53.240;6.580;2022-07-24T00:24:37;15.60;99.90
56234;DHT22;42141;53.240;6.580;2022-07-24T00:27:02;16.40;99.90
56234;DHT22;42141;53.240;6.580;2022-07-24T00:29:28;15.60;99.90
56234;DHT22;42141;53.240;6.580;2022-07-24T00:31:54;14.80;99.90
56234;DHT22;42141;53.240;6.580;2022-07-24T00:34:20;15.60;99.90
56234;DHT22;42141;53.240;6.580;2022-07-24T00:36:45;15.60;99.90
56234;DHT22;42141;53.240;6.580;2022-07-24T00:39:12;15.60;99.90
56234;DHT22;42141;53.240;6.580;2022-07-24T00:41:38;15.60;99.90
56234;DHT22;42141;53.240;6.580;2022-07-24T00:44:09;16.00;99.90
56234;DHT22;42141;53.240;6.580;2022-07-24T00:46:37;15.50;99.90
56234;DHT22;42141;53.240;6.580;2022-07-24T00:49:08;15.60;99.90
56234;DHT22;42141;53.240;6.580;2022-07-24T00:51:35;15.60;99.90
56234;DHT22;42141;53.240;6.580;2022-07-24T00:54:05;16.10;99.90
56234;DHT22;42141;53.240;6.580;2022-07-24T00:56:31;15.50;99.90
56234;DHT22;42141;53.240;6.580;2022-07-24T00:58:57;15.50;99.90
56234;DHT22;42141;53.240;6.580;2022-07-24T01:01:24;15.70;99.90
56234;DHT22;42141;53.240;6.580;2022-07-24T01:03:50;15.50;99.90
56234;DHT22;42141;53.240;6.580;2022-07-24T01:06:16;16.60;99.90
56234;DHT22;42141;53.240;6.580;2022-07-24T01:08:42;15.50;99.90
56234;DHT22;42141;53.240;6.580;2022-07-24T01:11:09;14.60;99.90
56234;DHT22;42141;53.240;6.580;2022-07-24T01:13:37;15.50;99.90
56234;DHT22;42141;53.240;6.580;2022-07-24T01:16:03;15.40;99.90
56234;DHT22;42141;53.240;6.580;2022-07-24T01:18:29;15.40;99.90
56234;DHT22;42141;53.240;6.580;2022-07-24T01:20:54;15.50;99.90
56234;DHT22;42141;53.240;6.580;2022-07-24T01:23:23;15.40;99.90
56234;DHT22;42141;53.240;6.580;2022-07-24T01:25:49;15.40;99.90
56234;DHT22;42141;53.240;6.580;2022-07-24T01:28:15;15.40;99.90
56234;DHT22;42141;53.240;6.580;2022-07-24T01:30:41;15.50;99.90
56234;DHT22;42141;53.240;6.580;2022-07-24T01:33:07;15.40;99.90
56234;DHT22;42141;53.240;6.580;2022-07-24T01:35:32;15.40;99.90
56234;DHT22;42141;53.240;6.580;2022-07-24T01:37:58;16.00;99.90
56234;DHT22;42141;53.240;6.580;2022-07-24T01:40:24;15.50;99.90
56234;DHT22;42141;53.240;6.580;2022-07-24T01:42:50;15.50;99.90
56234;DHT22;42141;53.240;6.580;2022-07-24T01:45:16;15.50;99.90
56234;DHT22;42141;53.240;6.580;2022-07-24T01:47:42;15.50;99.90
56234;DHT22;42141;53.240;6.580;2022-07-24T01:50:09;15.40;99.90
56234;DHT22;42141;53.240;6.580;2022-07-24T01:52:36;15.40;99.90
56234;DHT22;42141;53.240;6.580;2022-07-24T01:55:02;15.40;99.90
56234;DHT22;42141;53.240;6.580;2022-07-24T01:57:28;15.40;99.90
56234;DHT22;42141;53.240;6.580;2022-07-24T01:59:54;15.70;99.90
56234;DHT22;42141;53.240;6.580;2022-07-24T02:02:19;15.40;99.90
56234;DHT22;42141;53.240;6.580;2022-07-24T02:04:45;15.40;99.90
56234;DHT22;42141;53.240;6.580;2022-07-24T02:07:11;15.40;99.90
56234;DHT22;42141;53.240;6.580;2022-07-24T02:09:37;15.40;99.90
56234;DHT22;42141;53.240;6.580;2022-07-24T02:12:03;15.40;99.90
56234;DHT22;42141;53.240;6.580;2022-07-24T02:14:28;15.30;99.90
56234;DHT22;42141;53.240;6.580;2022-07-24T02:16:54;15.30;99.90
56234;DHT22;42141;53.240;6.580;2022-07-24T02:19:20;15.30;99.90
56234;DHT22;42141;53.240;6.580;2022-07-24T02:21:45;15.30;99.90
56234;DHT22;42141;53.240;6.580;2022-07-24T02:24:11;15.30;99.90
56234;DHT22;42141;53.240;6.580;2022-07-24T02:26:37;14.30;99.90
56234;DHT22;42141;53.240;6.580;2022-07-24T02:29:03;16.00;99.90
56234;DHT22;42141;53.240;6.580;2022-07-24T02:31:28;15.30;99.90
56234;DHT22;42141;53.240;6.580;2022-07-24T02:33:54;15.30;99.90
56234;DHT22;42141;53.240;6.580;2022-07-24T02:36:20;15.90;99.90
56234;DHT22;42141;53.240;6.580;2022-07-24T02:38:46;15.30;99.90
56234;DHT22;42141;53.240;6.580;2022-07-24T02:41:11;15.30;99.90
56234;DHT22;42141;53.240;6.580;2022-07-24T02:43:37;15.20;99.90
56234;DHT22;42141;53.240;6.580;2022-07-24T02:46:03;15.20;99.90
56234;DHT22;42141;53.240;6.580;2022-07-24T02:48:29;15.20;99.90
56234;DHT22;42141;53.240;6.580;2022-07-24T02:50:54;15.20;99.90
56234;DHT22;42141;53.240;6.580;2022-07-24T02:53:20;15.80;99.90
56234;DHT22;42141;53.240;6.580;2022-07-24T02:55:46;15.20;99.90
56234;DHT22;42141;53.240;6.580;2022-07-24T02:58:11;15.20;99.90
56234;DHT22;42141;53.240;6.580;2022-07-24T03:00:37;15.20;99.90
56234;DHT22;42141;53.240;6.580;2022-07-24T03:03:03;15.20;99.90
56234;DHT22;42141;53.240;6.580;2022-07-24T03:05:29;15.20;99.90
56234;DHT22;42141;53.240;6.580;2022-07-24T03:07:55;15.90;99.90
56234;DHT22;42141;53.240;6.580;2022-07-24T03:10:21;15.20;99.90
56234;DHT22;42141;53.240;6.580;2022-07-24T03:12:47;15.20;99.90
56234;DHT22;42141;53.240;6.580;2022-07-24T03:15:13;15.20;99.90
56234;DHT22;42141;53.240;6.580;2022-07-24T03:17:51;15.20;99.90
56234;DHT22;42141;53.240;6.580;2022-07-24T03:20:17;15.20;99.90
56234;DHT22;42141;53.240;6.580;2022-07-24T03:22:44;15.20;99.90
56234;DHT22;42141;53.240;6.580;2022-07-24T03:25:10;15.20;99.90
56234;DHT22;42141;53.240;6.580;2022-07-24T03:27:37;15.20;99.90
56234;DHT22;42141;53.240;6.580;2022-07-24T03:30:04;15.20;99.90
56234;DHT22;42141;53.240;6.580;2022-07-24T03:32:30;15.20;99.90
56234;DHT22;42141;53.240;6.580;2022-07-24T03:34:56;15.30;99.90
56234;DHT22;42141;53.240;6.580;2022-07-24T03:37:22;15.20;99.90
56234;DHT22;42141;53.240;6.580;2022-07-24T03:39:47;15.30;99.90
56234;DHT22;42141;53.240;6.580;2022-07-24T03:42:13;14.50;99.90
56234;DHT22;42141;53.240;6.580;2022-07-24T03:44:39;15.30;99.90
56234;DHT22;42141;53.240;6.580;2022-07-24T03:47:05;15.40;99.90
56234;DHT22;42141;53.240;6.580;2022-07-24T03:49:31;15.40;99.90
56234;DHT22;42141;53.240;6.580;2022-07-24T03:51:57;15.50;99.90
56234;DHT22;42141;53.240;6.580;2022-07-24T03:54:23;15.50;99.90
56234;DHT22;42141;53.240;6.580;2022-07-24T03:56:49;15.50;99.90
56234;DHT22;42141;53.240;6.580;2022-07-24T03:59:15;15.50;99.90
56234;DHT22;42141;53.240;6.580;2022-07-24T04:01:41;15.60;99.90
56234;DHT22;42141;53.240;6.580;2022-07-24T04:04:07;15.60;99.90
56234;DHT22;42141;53.240;6.580;2022-07-24T04:06:34;15.70;99.90
56234;DHT22;42141;53.240;6.580;2022-07-24T04:09:01;15.70;99.90
56234;DHT22;42141;53.240;6.580;2022-07-24T04:11:28;15.80;99.90
56234;DHT22;42141;53.240;6.580;2022-07-24T04:13:53;15.80;99.90
56234;DHT22;42141;53.240;6.580;2022-07-24T04:16:20;15.80;99.90
56234;DHT22;42141;53.240;6.580;2022-07-24T04:18:46;15.80;99.90
56234;DHT22;42141;53.240;6.580;2022-07-24T04:21:12;15.70;99.90
56234;DHT22;42141;53.240;6.580;2022-07-24T04:23:38;15.80;99.90
56234;DHT22;42141;53.240;6.580;2022-07-24T04:26:04;15.90;99.90
56234;DHT22;42141;53.240;6.580;2022-07-24T04:28:30;15.80;99.90
56234;DHT22;42141;53.240;6.580;2022-07-24T04:30:56;15.80;99.90
56234;DHT22;42141;53.240;6.580;2022-07-24T04:33:21;15.80;99.90
56234;DHT22;42141;53.240;6.580;2022-07-24T04:35:47;15.80;99.90
56234;DHT22;42141;53.240;6.580;2022-07-24T04:38:13;15.90;99.90
56234;DHT22;42141;53.240;6.580;2022-07-24T04:40:39;15.80;99.90
56234;DHT22;42141;53.240;6.580;2022-07-24T04:43:05;16.60;99.90
56234;DHT22;42141;53.240;6.580;2022-07-24T04:45:31;15.90;99.90
56234;DHT22;42141;53.240;6.580;2022-07-24T04:47:57;16.40;99.90
56234;DHT22;42141;53.240;6.580;2022-07-24T04:50:22;16.10;99.90
56234;DHT22;42141;53.240;6.580;2022-07-24T04:52:48;16.20;99.90
56234;DHT22;42141;53.240;6.580;2022-07-24T04:55:14;16.30;99.90
56234;DHT22;42141;53.240;6.580;2022-07-24T04:57:39;16.70;99.90
56234;DHT22;42141;53.240;6.580;2022-07-24T05:00:07;16.30;99.90
56234;DHT22;42141;53.240;6.580;2022-07-24T05:02:33;16.40;99.90
56234;DHT22;42141;53.240;6.580;2022-07-24T05:04:59;16.50;99.90
56234;DHT22;42141;53.240;6.580;2022-07-24T05:07:25;16.60;99.90
56234;DHT22;42141;53.240;6.580;2022-07-24T05:09:51;16.70;99.90
56234;DHT22;42141;53.240;6.580;2022-07-24T05:12:16;16.80;99.90
56234;DHT22;42141;53.240;6.580;2022-07-24T05:14:42;16.90;99.90
56234;DHT22;42141;53.240;6.580;2022-07-24T05:17:07;17.10;99.90
56234;DHT22;42141;53.240;6.580;2022-07-24T05:19:33;17.30;99.90
56234;DHT22;42141;53.240;6.580;2022-07-24T05:21:59;17.40;99.90
56234;DHT22;42141;53.240;6.580;2022-07-24T05:24:24;17.40;99.90
56234;DHT22;42141;53.240;6.580;2022-07-24T05:26:52;17.50;99.90
56234;DHT22;42141;53.240;6.580;2022-07-24T05:29:18;17.60;99.90
56234;DHT22;42141;53.240;6.580;2022-07-24T05:31:43;17.60;99.90
56234;DHT22;42141;53.240;6.580;2022-07-24T05:34:09;17.70;99.90
56234;DHT22;42141;53.240;6.580;2022-07-24T05:36:36;17.70;99.90
56234;DHT22;42141;53.240;6.580;2022-07-24T05:39:02;17.70;99.90
56234;DHT22;42141;53.240;6.580;2022-07-24T05:41:28;17.80;99.90
56234;DHT22;42141;53.240;6.580;2022-07-24T05:43:53;17.80;99.90
56234;DHT22;42141;53.240;6.580;2022-07-24T05:46:20;17.80;99.90
56234;DHT22;42141;53.240;6.580;2022-07-24T05:48:46;17.90;99.90
56234;DHT22;42141;53.240;6.580;2022-07-24T05:51:11;17.90;99.90
56234;DHT22;42141;53.240;6.580;2022-07-24T05:53:37;17.90;99.90
56234;DHT22;42141;53.240;6.580;2022-07-24T05:56:04;17.90;99.90
56234;DHT22;42141;53.240;6.580;2022-07-24T05:58:30;17.90;99.90
56234;DHT22;42141;53.240;6.580;2022-07-24T06:00:56;17.90;99.90
56234;DHT22;42141;53.240;6.580;2022-07-24T06:03:21;17.90;99.90
56234;DHT22;42141;53.240;6.580;2022-07-24T06:05:47;17.90;99.90
56234;DHT22;42141;53.240;6.580;2022-07-24T06:08:13;17.90;99.90
56234;DHT22;42141;53.240;6.580;2022-07-24T06:10:39;17.90;99.90
56234;DHT22;42141;53.240;6.580;2022-07-24T06:13:05;18.00;99.90
56234;DHT22;42141;53.240;6.580;2022-07-24T06:15:31;18.10;99.90
56234;DHT22;42141;53.240;6.580;2022-07-24T06:17:57;18.30;99.90
56234;DHT22;42141;53.240;6.580;2022-07-24T06:20:23;18.70;99.90
56234;DHT22;42141;53.240;6.580;2022-07-24T06:22:49;18.60;99.90
56234;DHT22;42141;53.240;6.580;2022-07-24T06:25:15;18.70;99.90
56234;DHT22;42141;53.240;6.580;2022-07-24T06:27:42;18.80;99.90
56234;DHT22;42141;53.240;6.580;2022-07-24T06:30:17;18.90;99.90
56234;DHT22;42141;53.240;6.580;2022-07-24T06:32:43;19.10;99.90
56234;DHT22;42141;53.240;6.580;2022-07-24T06:35:10;19.20;99.90
56234;DHT22;42141;53.240;6.580;2022-07-24T06:37:36;19.30;99.90
56234;DHT22;42141;53.240;6.580;2022-07-24T06:40:02;19.40;99.90
56234;DHT22;42141;53.240;6.580;2022-07-24T06:42:28;19.50;99.90
56234;DHT22;42141;53.240;6.580;2022-07-24T06:44:54;19.60;99.90
56234;DHT22;42141;53.240;6.580;2022-07-24T06:47:20;19.70;99.90
56234;DHT22;42141;53.240;6.580;2022-07-24T06:49:46;19.80;99.90
56234;DHT22;42141;53.240;6.580;2022-07-24T06:52:11;19.90;99.90
56234;DHT22;42141;53.240;6.580;2022-07-24T06:54:37;20.00;99.90
56234;DHT22;42141;53.240;6.580;2022-07-24T06:57:10;20.10;99.90
56234;DHT22;42141;53.240;6.580;2022-07-24T06:59:36;19.60;99.90
56234;DHT22;42141;53.240;6.580;2022-07-24T07:02:05;20.30;99.90
56234;DHT22;42141;53.240;6.580;2022-07-24T07:04:31;20.40;99.90
56234;DHT22;42141;53.240;6.580;2022-07-24T07:06:57;20.50;99.90
56234;DHT22;42141;53.240;6.580;2022-07-24T07:09:23;20.50;99.90
56234;DHT22;42141;53.240;6.580;2022-07-24T07:11:49;20.60;99.90
56234;DHT22;42141;53.240;6.580;2022-07-24T07:14:14;20.80;99.90
56234;DHT22;42141;53.240;6.580;2022-07-24T07:16:40;20.80;99.90
56234;DHT22;42141;53.240;6.580;2022-07-24T07:19:06;20.90;99.90
56234;DHT22;42141;53.240;6.580;2022-07-24T07:21:31;21.00;99.90
56234;DHT22;42141;53.240;6.580;2022-07-24T07:23:59;21.00;99.90
56234;DHT22;42141;53.240;6.580;2022-07-24T07:26:24;21.10;99.90
56234;DHT22;42141;53.240;6.580;2022-07-24T07:28:50;21.10;99.90
56234;DHT22;42141;53.240;6.580;2022-07-24T07:31:16;21.40;99.90
56234;DHT22;42141;53.240;6.580;2022-07-24T07:33:47;21.30;99.90
56234;DHT22;42141;53.240;6.580;2022-07-24T07:36:13;21.50;99.90
56234;DHT22;42141;53.240;6.580;2022-07-24T07:38:40;21.70;99.90
56234;DHT22;42141;53.240;6.580;2022-07-24T07:41:06;21.80;99.90
56234;DHT22;42141;53.240;6.580;2022-07-24T07:43:32;22.00;99.90
56234;DHT22;42141;53.240;6.580;2022-07-24T07:45:57;22.20;99.90
56234;DHT22;42141;53.240;6.580;2022-07-24T07:48:23;22.50;99.90
56234;DHT22;42141;53.240;6.580;2022-07-24T07:50:49;22.70;99.90
56234;DHT22;42141;53.240;6.580;2022-07-24T07:53:15;22.90;99.90
56234;DHT22;42141;53.240;6.580;2022-07-24T07:55:40;23.00;99.90
56234;DHT22;42141;53.240;6.580;2022-07-24T07:58:08;23.10;99.90
56234;DHT22;42141;53.240;6.580;2022-07-24T08:00:35;23.20;99.90
56234;DHT22;42141;53.240;6.580;2022-07-24T08:03:01;23.20;99.90
56234;DHT22;42141;53.240;6.580;2022-07-24T08:05:28;23.30;99.90
56234;DHT22;42141;53.240;6.580;2022-07-24T08:07:53;23.30;99.90
56234;DHT22;42141;53.240;6.580;2022-07-24T08:10:19;23.40;99.90
56234;DHT22;42141;53.240;6.580;2022-07-24T08:12:45;23.40;99.90
56234;DHT22;42141;53.240;6.580;2022-07-24T08:15:11;23.40;99.90
56234;DHT22;42141;53.240;6.580;2022-07-24T08:17:36;23.50;99.90
56234;DHT22;42141;53.240;6.580;2022-07-24T08:20:02;23.50;99.90
56234;DHT22;42141;53.240;6.580;2022-07-24T08:22:29;23.60;99.90
56234;DHT22;42141;53.240;6.580;2022-07-24T08:24:54;23.70;99.90
56234;DHT22;42141;53.240;6.580;2022-07-24T08:27:20;23.80;99.90
56234;DHT22;42141;53.240;6.580;2022-07-24T08:29:46;24.00;99.90
56234;DHT22;42141;53.240;6.580;2022-07-24T08:32:12;24.10;99.90
56234;DHT22;42141;53.240;6.580;2022-07-24T08:34:38;24.30;99.90
56234;DHT22;42141;53.240;6.580;2022-07-24T08:37:03;24.30;99.90
56234;DHT22;42141;53.240;6.580;2022-07-24T08:39:29;24.40;99.90
56234;DHT22;42141;53.240;6.580;2022-07-24T08:41:55;24.40;99.90
56234;DHT22;42141;53.240;6.580;2022-07-24T08:44:21;24.40;99.90
56234;DHT22;42141;53.240;6.580;2022-07-24T08:46:47;24.40;99.90
56234;DHT22;42141;53.240;6.580;2022-07-24T08:49:15;23.00;99.90
56234;DHT22;42141;53.240;6.580;2022-07-24T08:51:43;24.30;99.90
56234;DHT22;42141;53.240;6.580;2022-07-24T08:54:10;24.20;99.90
56234;DHT22;42141;53.240;6.580;2022-07-24T08:56:40;24.20;99.90
56234;DHT22;42141;53.240;6.580;2022-07-24T08:59:18;24.20;99.90
56234;DHT22;42141;53.240;6.580;2022-07-24T09:01:47;24.20;99.90
56234;DHT22;42141;53.240;6.580;2022-07-24T09:07:02;24.20;99.90
56234;DHT22;42141;53.240;6.580;2022-07-24T09:09:28;24.20;99.90
56234;DHT22;42141;53.240;6.580;2022-07-24T09:12:13;24.30;99.90
56234;DHT22;42141;53.240;6.580;2022-07-24T09:14:41;24.60;99.90
56234;DHT22;42141;53.240;6.580;2022-07-24T09:17:18;24.60;99.90
56234;DHT22;42141;53.240;6.580;2022-07-24T09:19:53;24.70;99.90
56234;DHT22;42141;53.240;6.580;2022-07-24T09:22:36;24.60;99.90
56234;DHT22;42141;53.240;6.580;2022-07-24T09:25:10;24.50;99.90
56234;DHT22;42141;53.240;6.580;2022-07-24T09:27:39;24.50;99.90
56234;DHT22;42141;53.240;6.580;2022-07-24T09:30:06;24.60;99.90
56234;DHT22;42141;53.240;6.580;2022-07-24T09:32:33;24.60;99.90
56234;DHT22;42141;53.240;6.580;2022-07-24T09:35:00;24.70;99.90
56234;DHT22;42141;53.240;6.580;2022-07-24T09:37:26;24.90;99.90
56234;DHT22;42141;53.240;6.580;2022-07-24T09:39:53;25.00;99.90
56234;DHT22;42141;53.240;6.580;2022-07-24T09:42:30;25.10;99.90
56234;DHT22;42141;53.240;6.580;2022-07-24T09:45:00;25.30;99.90
56234;DHT22;42141;53.240;6.580;2022-07-24T09:47:29;25.40;99.90
56234;DHT22;42141;53.240;6.580;2022-07-24T09:50:13;25.50;99.90
56234;DHT22;42141;53.240;6.580;2022-07-24T09:52:41;25.50;99.90
56234;DHT22;42141;53.240;6.580;2022-07-24T09:55:20;25.60;99.90
56234;DHT22;42141;53.240;6.580;2022-07-24T09:57:46;25.80;99.80
56234;DHT22;42141;53.240;6.580;2022-07-24T10:00:13;25.90;99.90
56234;DHT22;42141;53.240;6.580;2022-07-24T10:02:43;26.10;99.90
56234;DHT22;42141;53.240;6.580;2022-07-24T10:05:10;26.20;99.90
56234;DHT22;42141;53.240;6.580;2022-07-24T10:07:37;26.40;99.90
56234;DHT22;42141;53.240;6.580;2022-07-24T10:10:03;26.60;99.30
56234;DHT22;42141;53.240;6.580;2022-07-24T10:12:30;26.70;98.90
56234;DHT22;42141;53.240;6.580;2022-07-24T10:14:59;26.70;98.60
56234;DHT22;42141;53.240;6.580;2022-07-24T10:18:35;26.80;98.30
56234;DHT22;42141;53.240;6.580;2022-07-24T10:20:40;26.80;95.10
56234;DHT22;42141;53.240;6.580;2022-07-24T10:23:07;27.00;98.10
56234;DHT22;42141;53.240;6.580;2022-07-24T10:28:38;27.20;94.70
56234;DHT22;42141;53.240;6.580;2022-07-24T10:31:06;27.10;94.30
56234;DHT22;42141;53.240;6.580;2022-07-24T10:33:34;27.00;96.60
56234;DHT22;42141;53.240;6.580;2022-07-24T10:36:01;26.90;96.80
56234;DHT22;42141;53.240;6.580;2022-07-24T10:38:40;26.80;96.90
56234;DHT22;42141;53.240;6.580;2022-07-24T10:41:15;26.80;96.50
56234;DHT22;42141;53.240;6.580;2022-07-24T10:44:16;26.90;96.30
56234;DHT22;42141;53.240;6.580;2022-07-24T10:47:00;27.00;96.00
56234;DHT22;42141;53.240;6.580;2022-07-24T10:49:39;27.00;95.10
56234;DHT22;42141;53.240;6.580;2022-07-24T10:52:06;27.00;95.10
56234;DHT22;42141;53.240;6.580;2022-07-24T10:54:33;27.20;96.30
56234;DHT22;42141;53.240;6.580;2022-07-24T10:56:59;27.50;94.90
56234;DHT22;42141;53.240;6.580;2022-07-24T10:59:38;27.60;93.90
56234;DHT22;42141;53.240;6.580;2022-07-24T11:02:26;27.70;90.90
56234;DHT22;42141;53.240;6.580;2022-07-24T11:05:27;27.70;89.90
56234;DHT22;42141;53.240;6.580;2022-07-24T11:10:53;27.50;92.50
56234;DHT22;42141;53.240;6.580;2022-07-24T11:18:42;27.20;91.70
56234;DHT22;42141;53.240;6.580;2022-07-24T11:21:08;27.20;92.50
56234;DHT22;42141;53.240;6.580;2022-07-24T11:23:34;27.30;92.70
56234;DHT22;42141;53.240;6.580;2022-07-24T11:29:17;27.50;91.40
56234;DHT22;42141;53.240;6.580;2022-07-24T11:31:45;27.70;91.90
56234;DHT22;42141;53.240;6.580;2022-07-24T11:34:11;27.90;92.40
56234;DHT22;42141;53.240;6.580;2022-07-24T11:36:40;28.10;91.80
56234;DHT22;42141;53.240;6.580;2022-07-24T11:39:08;28.30;90.50
56234;DHT22;42141;53.240;6.580;2022-07-24T11:41:48;28.40;88.00
56234;DHT22;42141;53.240;6.580;2022-07-24T11:44:22;28.40;83.20
56234;DHT22;42141;53.240;6.580;2022-07-24T11:46:48;28.40;82.10
56234;DHT22;42141;53.240;6.580;2022-07-24T11:49:14;28.40;82.60
56234;DHT22;42141;53.240;6.580;2022-07-24T11:51:41;28.50;83.90
56234;DHT22;42141;53.240;6.580;2022-07-24T11:54:08;28.70;81.40
56234;DHT22;42141;53.240;6.580;2022-07-24T11:56:34;29.00;79.80
56234;DHT22;42141;53.240;6.580;2022-07-24T11:59:00;29.10;77.80
56234;DHT22;42141;53.240;6.580;2022-07-24T12:01:26;29.10;75.80
56234;DHT22;42141;53.240;6.580;2022-07-24T12:03:53;29.10;72.90
56234;DHT22;42141;53.240;6.580;2022-07-24T12:06:20;29.00;73.60
56234;DHT22;42141;53.240;6.580;2022-07-24T12:08:49;28.90;72.20
56234;DHT22;42141;53.240;6.580;2022-07-24T12:11:22;28.90;71.40
56234;DHT22;42141;53.240;6.580;2022-07-24T12:13:49;28.90;68.40
56234;DHT22;42141;53.240;6.580;2022-07-24T12:16:27;28.80;70.70
56234;DHT22;42141;53.240;6.580;2022-07-24T12:19:30;28.70;71.60
56234;DHT22;42141;53.240;6.580;2022-07-24T12:21:56;28.70;74.60
56234;DHT22;42141;53.240;6.580;2022-07-24T12:24:21;28.70;74.80
56234;DHT22;42141;53.240;6.580;2022-07-24T12:26:55;28.70;74.10
56234;DHT22;42141;53.240;6.580;2022-07-24T12:29:23;28.70;71.50
56234;DHT22;42141;53.240;6.580;2022-07-24T12:31:49;28.80;74.20
56234;DHT22;42141;53.240;6.580;2022-07-24T12:34:17;28.80;73.00
56234;DHT22;42141;53.240;6.580;2022-07-24T12:36:43;28.80;73.40
56234;DHT22;42141;53.240;6.580;2022-07-24T12:39:11;28.90;73.60
56234;DHT22;42141;53.240;6.580;2022-07-24T12:41:43;29.00;72.60
56234;DHT22;42141;53.240;6.580;2022-07-24T12:44:09;29.10;68.20
56234;DHT22;42141;53.240;6.580;2022-07-24T12:46:42;29.10;67.20
56234;DHT22;42141;53.240;6.580;2022-07-24T12:49:17;29.10;67.30
56234;DHT22;42141;53.240;6.580;2022-07-24T12:51:48;29.10;64.70
56234;DHT22;42141;53.240;6.580;2022-07-24T12:54:21;29.10;64.10
56234;DHT22;42141;53.240;6.580;2022-07-24T12:56:50;29.10;64.10
56234;DHT22;42141;53.240;6.580;2022-07-24T12:59:37;29.10;64.80
56234;DHT22;42141;53.240;6.580;2022-07-24T13:02:08;29.20;63.50
56234;DHT22;42141;53.240;6.580;2022-07-24T13:04:45;29.20;64.60
56234;DHT22;42141;53.240;6.580;2022-07-24T13:07:11;29.30;63.70
56234;DHT22;42141;53.240;6.580;2022-07-24T13:09:37;29.30;64.90
56234;DHT22;42141;53.240;6.580;2022-07-24T13:12:05;29.40;65.10
56234;DHT22;42141;53.240;6.580;2022-07-24T13:14:32;29.40;64.00
56234;DHT22;42141;53.240;6.580;2022-07-24T13:17:17;29.50;63.70
56234;DHT22;42141;53.240;6.580;2022-07-24T13:19:47;29.60;64.20
56234;DHT22;42141;53.240;6.580;2022-07-24T13:22:13;29.60;63.20
56234;DHT22;42141;53.240;6.580;2022-07-24T13:24:41;29.50;62.70
56234;DHT22;42141;53.240;6.580;2022-07-24T13:27:12;29.80;64.30
56234;DHT22;42141;53.240;6.580;2022-07-24T13:29:39;29.50;64.00
56234;DHT22;42141;53.240;6.580;2022-07-24T13:32:05;29.60;64.00
56234;DHT22;42141;53.240;6.580;2022-07-24T13:34:32;29.70;63.10
56234;DHT22;42141;53.240;6.580;2022-07-24T13:36:58;29.80;62.60
56234;DHT22;42141;53.240;6.580;2022-07-24T13:39:25;29.90;62.80
56234;DHT22;42141;53.240;6.580;2022-07-24T13:41:51;30.00;62.30
56234;DHT22;42141;53.240;6.580;2022-07-24T13:44:17;30.10;62.00
56234;DHT22;42141;53.240;6.580;2022-07-24T13:46:43;30.20;62.20
56234;DHT22;42141;53.240;6.580;2022-07-24T13:49:10;30.20;60.80
56234;DHT22;42141;53.240;6.580;2022-07-24T13:51:40;30.30;60.40
56234;DHT22;42141;53.240;6.580;2022-07-24T13:54:19;30.30;60.90
56234;DHT22;42141;53.240;6.580;2022-07-24T13:56:45;30.40;60.40
56234;DHT22;42141;53.240;6.580;2022-07-24T13:59:15;30.50;60.30
56234;DHT22;42141;53.240;6.580;2022-07-24T14:01:42;30.50;56.90
56234;DHT22;42141;53.240;6.580;2022-07-24T14:04:07;30.50;57.20
56234;DHT22;42141;53.240;6.580;2022-07-24T14:06:39;30.50;57.00
56234;DHT22;42141;53.240;6.580;2022-07-24T14:09:05;30.50;57.10
56234;DHT22;42141;53.240;6.580;2022-07-24T14:11:31;30.60;57.20
56234;DHT22;42141;53.240;6.580;2022-07-24T14:13:59;30.70;57.30
56234;DHT22;42141;53.240;6.580;2022-07-24T14:16:25;30.80;57.40
56234;DHT22;42141;53.240;6.580;2022-07-24T14:18:51;30.90;56.50
56234;DHT22;42141;53.240;6.580;2022-07-24T14:21:17;30.80;55.40
56234;DHT22;42141;53.240;6.580;2022-07-24T14:23:42;30.80;55.30
56234;DHT22;42141;53.240;6.580;2022-07-24T14:26:08;30.80;54.80
56234;DHT22;42141;53.240;6.580;2022-07-24T14:28:34;30.80;54.80
56234;DHT22;42141;53.240;6.580;2022-07-24T14:31:00;30.80;54.90
56234;DHT22;42141;53.240;6.580;2022-07-24T14:33:28;30.80;55.10
56234;DHT22;42141;53.240;6.580;2022-07-24T14:35:57;30.70;53.90
56234;DHT22;42141;53.240;6.580;2022-07-24T14:38:22;30.70;54.50
56234;DHT22;42141;53.240;6.580;2022-07-24T14:40:48;30.70;54.60
56234;DHT22;42141;53.240;6.580;2022-07-24T14:43:14;30.70;54.20
56234;DHT22;42141;53.240;6.580;2022-07-24T14:45:40;30.80;53.90
56234;DHT22;42141;53.240;6.580;2022-07-24T14:48:05;30.90;54.10
56234;DHT22;42141;53.240;6.580;2022-07-24T14:50:31;31.00;53.60
56234;DHT22;42141;53.240;6.580;2022-07-24T14:52:57;30.90;53.20
56234;DHT22;42141;53.240;6.580;2022-07-24T14:55:23;30.90;53.30
56234;DHT22;42141;53.240;6.580;2022-07-24T14:57:48;31.00;53.50
56234;DHT22;42141;53.240;6.580;2022-07-24T15:00:23;30.60;53.20
56234;DHT22;42141;53.240;6.580;2022-07-24T15:02:49;31.00;53.80
56234;DHT22;42141;53.240;6.580;2022-07-24T15:05:15;31.10;53.50
56234;DHT22;42141;53.240;6.580;2022-07-24T15:07:40;31.10;53.30
56234;DHT22;42141;53.240;6.580;2022-07-24T15:10:06;31.00;53.40
56234;DHT22;42141;53.240;6.580;2022-07-24T15:12:32;31.00;53.80
56234;DHT22;42141;53.240;6.580;2022-07-24T15:14:58;31.10;54.10
56234;DHT22;42141;53.240;6.580;2022-07-24T15:17:23;31.10;54.30
56234;DHT22;42141;53.240;6.580;2022-07-24T15:19:49;31.10;54.40
56234;DHT22;42141;53.240;6.580;2022-07-24T15:22:15;31.30;54.00
56234;DHT22;42141;53.240;6.580;2022-07-24T15:24:41;31.40;53.90
56234;DHT22;42141;53.240;6.580;2022-07-24T15:27:07;31.60;53.70
56234;DHT22;42141;53.240;6.580;2022-07-24T15:29:33;31.60;53.50
56234;DHT22;42141;53.240;6.580;2022-07-24T15:31:59;31.60;53.80
56234;DHT22;42141;53.240;6.580;2022-07-24T15:34:26;31.70;53.60
56234;DHT22;42141;53.240;6.580;2022-07-24T15:36:52;31.70;53.40
56234;DHT22;42141;53.240;6.580;2022-07-24T15:39:17;31.70;54.30
56234;DHT22;42141;53.240;6.580;2022-07-24T15:41:43;31.70;53.50
56234;DHT22;42141;53.240;6.580;2022-07-24T15:44:10;31.60;53.60
56234;DHT22;42141;53.240;6.580;2022-07-24T15:46:39;31.60;55.00
56234;DHT22;42141;53.240;6.580;2022-07-24T15:49:05;31.60;54.20